Terminal Aerodrome Forecast
Issued by NWS

Home | Current Version | Previous Version | Text Only | Print | Product List | Glossary On
Versions: 1 2 3 4 5 6 7 8 9 10 11 12 13 14 15 16 17 18 19 20 21 22 23 24 25 26 27 28 29 30 31 32 33 34 35 36 37 38 39 40 41 42 43 44 45 46 47 48 49 50
565
FTUS45 KGJT 260739 AAB
TAFTEX
TAF AMD
KTEX 260739Z 2608/2706 25004KT 3SM -SN VCSH SCT019 SCT028 OVC050
      TEMPO 2608/2611 5SM -SN BKN025
     FM261300 VRB03KT P6SM BKN050
     FM261700 26008KT P6SM BKN100
     FM262100 23010KT P6SM VCSH SCT060 BKN100
     FM270400 14005KT P6SM BKN130=

USA.gov is the U.S. government's official web portal to all federal, state and local government web resources and services.